Time;durP1;ratioP1;P1;durP2;ratioP2;P2;SDS_P1;SDS_P2;PMS_P1;PMS_P2;Temp;Humidity;BMP_temperature;BMP_pressure;BME280_temperature;BME280_humidity;BME280_pressure;Samples;Min_cycle;Max_cycle;Signal;HPM_P1;HPM_P2
2021/03/20 00:01:26;;;;;;;7.83;6.60;;;;;;;-0.38;100.00;92299.63;5016004;28;20207;-89
2021/03/20 00:03:53;;;;;;;7.00;6.33;;;;;;;-0.46;100.00;92293.78;5015111;28;20290;-88
2021/03/20 00:06:24;;;;;;;6.50;5.90;;;;;;;-0.42;100.00;92267.41;5014961;28;20229;-86
2021/03/20 00:08:56;;;;;;;6.83;6.13;;;;;;;-0.33;100.00;92224.22;5014847;28;20234;-87
2021/03/20 00:11:25;;;;;;;7.20;6.50;;;;;;;-0.30;100.00;92185.94;5014589;28;20273;-86
2021/03/20 00:13:56;;;;;;;7.90;7.07;;;;;;;-0.14;100.00;92147.84;5014717;28;20203;-87
2021/03/20 00:16:23;;;;;;;7.83;7.07;;;;;;;-0.11;100.00;92137.94;5014741;28;20203;-87
2021/03/20 00:18:50;;;;;;;9.43;7.27;;;;;;;-0.39;100.00;92184.50;5014932;28;20287;-87
2021/03/20 00:21:17;;;;;;;19.53;15.80;;;;;;;-0.45;100.00;92197.34;5014221;28;20206;-87
2021/03/20 00:23:44;;;;;;;22.53;18.77;;;;;;;-0.85;100.00;92259.81;5014419;28;20203;-87
2021/03/20 00:26:11;;;;;;;22.90;17.10;;;;;;;-0.94;100.00;92275.63;5014594;28;20204;-87
2021/03/20 00:28:38;;;;;;;12.30;11.10;;;;;;;-0.52;100.00;92202.47;5014588;28;20584;-87
2021/03/20 00:31:10;;;;;;;9.70;8.70;;;;;;;-0.31;100.00;92155.97;5014300;28;20270;-86
2021/03/20 00:33:37;;;;;;;11.43;8.27;;;;;;;0.01;100.00;92114.16;5014780;28;20231;-87
2021/03/20 00:36:12;;;;;;;8.93;7.23;;;;;;;-0.17;100.00;92148.25;5014288;28;20287;-86
2021/03/20 00:38:40;;;;;;;7.93;7.13;;;;;;;-0.13;100.00;92155.41;5014324;28;20207;-87
2021/03/20 00:41:08;;;;;;;9.63;8.37;;;;;;;-0.06;100.00;92168.34;5014610;28;20222;-87
2021/03/20 00:43:35;;;;;;;10.37;9.40;;;;;;;-0.05;100.00;92177.66;5014101;28;20254;-87
2021/03/20 00:46:03;;;;;;;7.83;7.13;;;;;;;-0.16;100.00;92206.63;5013776;28;20329;-86
2021/03/20 00:48:34;;;;;;;10.90;8.90;;;;;;;-0.23;100.00;92209.19;5014011;28;20200;-86
2021/03/20 00:51:02;;;;;;;11.60;10.00;;;;;;;-0.29;100.00;92208.16;5014006;28;20585;-87
2021/03/20 00:53:30;;;;;;;9.33;8.33;;;;;;;-0.21;100.00;92191.69;5013101;28;20202;-86
2021/03/20 00:55:57;;;;;;;7.83;7.03;;;;;;;-0.06;100.00;92181.25;5013840;28;20230;-87
2021/03/20 00:58:27;;;;;;;8.40;5.87;;;;;;;-0.24;100.00;92210.16;5014086;28;20577;-87
2021/03/20 01:00:56;;;;;;;7.70;6.23;;;;;;;-0.18;100.00;92208.59;5013938;28;20282;-87
2021/03/20 01:03:23;;;;;;;6.80;5.60;;;;;;;-0.57;100.00;92269.31;5013776;28;20204;-87
2021/03/20 01:05:52;;;;;;;9.77;8.77;;;;;;;-0.74;100.00;92302.34;5013519;28;20664;-87
2021/03/20 01:08:19;;;;;;;24.00;15.47;;;;;;;-0.63;100.00;92282.97;5013551;28;20665;-86
2021/03/20 01:10:47;;;;;;;16.37;14.47;;;;;;;-0.57;100.00;92287.38;5013819;28;20315;-87
2021/03/20 01:13:16;;;;;;;12.93;11.63;;;;;;;-0.43;100.00;92265.03;5013753;28;20234;-86
2021/03/20 01:15:43;;;;;;;15.30;11.63;;;;;;;-0.33;100.00;92263.72;5013750;28;20309;-87
2021/03/20 01:18:22;;;;;;;13.07;10.83;;;;;;;-0.38;100.00;92275.56;5013622;28;20204;-87
2021/03/20 01:20:50;;;;;;;10.03;9.03;;;;;;;-0.36;100.00;92296.84;5013521;28;20214;-87
2021/03/20 01:23:17;;;;;;;9.87;8.87;;;;;;;-0.39;100.00;92308.31;5013787;28;20728;-87
2021/03/20 01:25:44;;;;;;;9.60;8.33;;;;;;;-0.47;100.00;92318.00;5013699;28;20195;-87
2021/03/20 01:28:11;;;;;;;9.67;8.67;;;;;;;-0.34;100.00;92311.13;5013655;28;20192;-87
2021/03/20 01:30:41;;;;;;;8.93;7.10;;;;;;;-0.31;100.00;92312.56;5013448;28;20311;-88
2021/03/20 01:33:08;;;;;;;8.87;6.87;;;;;;;-0.29;100.00;92329.41;5013173;28;20203;-87
2021/03/20 01:35:36;;;;;;;10.97;6.93;;;;;;;-0.44;100.00;92361.47;5013551;28;20317;-88
2021/03/20 01:38:05;;;;;;;8.40;7.57;;;;;;;-0.32;100.00;92347.84;5013776;28;20560;-88
2021/03/20 01:40:35;;;;;;;9.83;6.90;;;;;;;-0.19;100.00;92341.19;5013279;28;20278;-88
2021/03/20 01:43:01;;;;;;;8.87;6.83;;;;;;;-0.16;100.00;92340.81;5013414;28;20285;-88
2021/03/20 01:45:31;;;;;;;7.67;6.73;;;;;;;-0.15;100.00;92355.31;5012976;28;20646;-88
2021/03/20 01:48:03;;;;;;;9.93;8.40;;;;;;;-0.03;100.00;92354.59;5013273;28;20210;-88
2021/03/20 01:50:36;;;;;;;10.47;8.87;;;;;;;-0.22;100.00;92408.66;5013428;28;20600;-88
2021/03/20 01:53:17;;;;;;;8.73;7.20;;;;;;;-0.74;100.00;92481.03;5013388;28;20246;-87
2021/03/20 01:55:44;;;;;;;9.67;8.20;;;;;;;-0.91;100.00;92499.50;5013711;28;20644;-87
2021/03/20 01:58:12;;;;;;;11.13;10.03;;;;;;;-0.79;100.00;92472.28;5013762;28;20639;-87
2021/03/20 02:00:42;;;;;;;9.17;8.30;;;;;;;-0.56;100.00;92433.41;5013730;28;20195;-87
2021/03/20 02:03:12;;;;;;;10.60;9.30;;;;;;;-0.32;100.00;92409.78;5013307;28;20221;-86
2021/03/20 02:05:39;;;;;;;9.07;8.20;;;;;;;-0.35;100.00;92423.03;5013327;28;20188;-88
2021/03/20 02:08:11;;;;;;;8.40;6.70;;;;;;;-0.36;100.00;92431.78;5012801;28;20686;-88
2021/03/20 02:10:44;;;;;;;9.30;8.20;;;;;;;-0.32;100.00;92429.63;5012940;28;20261;-87
2021/03/20 02:13:17;;;;;;;11.07;7.60;;;;;;;-0.34;100.00;92429.81;5013297;28;20223;-87
2021/03/20 02:15:46;;;;;;;8.13;7.33;;;;;;;-0.37;100.00;92421.66;5013222;28;20183;-87
2021/03/20 02:18:20;;;;;;;8.07;6.93;;;;;;;-0.37;100.00;92417.28;5012755;28;20287;-87
2021/03/20 02:21:10;;;;;;;9.67;8.50;;;;;;;-0.31;100.00;92398.50;5013226;28;20302;-88
2021/03/20 02:24:17;;;;;;;12.33;8.97;;;;;;;-0.18;100.00;92366.00;5012990;28;20281;-87
2021/03/20 02:27:14;;;;;;;9.37;8.40;;;;;;;-0.18;100.00;92364.22;5006859;28;20199;-87
2021/03/20 02:29:58;;;;;;;9.87;8.73;;;;;;;-0.26;100.00;92378.06;5004203;28;20581;-87
2021/03/20 02:32:43;;;;;;;8.67;7.77;;;;;;;-0.21;100.00;92369.75;5013078;28;20569;-87
2021/03/20 02:35:18;;;;;;;8.47;7.67;;;;;;;-0.18;100.00;92359.06;5012832;28;20184;-87
2021/03/20 02:37:52;;;;;;;10.97;7.97;;;;;;;-0.28;100.00;92379.22;5012875;28;20336;-87
2021/03/20 02:40:27;;;;;;;8.63;7.40;;;;;;;-0.18;100.00;92358.25;5012920;28;20245;-87
2021/03/20 02:42:59;;;;;;;9.37;8.43;;;;;;;-0.08;100.00;92345.81;5012569;28;20219;-87
2021/03/20 02:45:37;;;;;;;9.23;8.10;;;;;;;-0.25;100.00;92353.06;5014362;28;20239;-87
2021/03/20 02:48:14;;;;;;;12.03;9.17;;;;;;;-0.04;100.00;92309.09;5016314;28;20190;-87
2021/03/20 02:50:47;;;;;;;7.40;6.70;;;;;;;-0.17;100.00;92323.72;5016269;28;20215;-87
2021/03/20 02:53:19;;;;;;;7.93;6.70;;;;;;;-0.27;100.00;92348.09;5016229;28;20273;-87
2021/03/20 02:55:52;;;;;;;10.70;8.00;;;;;;;-0.63;100.00;92394.66;5016023;28;20188;-87
2021/03/20 02:58:25;;;;;;;11.40;10.20;;;;;;;-0.65;100.00;92373.44;5016180;28;20192;-87
2021/03/20 03:00:54;;;;;;;11.93;10.33;;;;;;;-0.49;100.00;92320.75;5016440;28;20188;-86
2021/03/20 03:03:27;;;;;;;16.83;12.20;;;;;;;-0.41;100.00;92289.66;5016788;28;20282;-87
2021/03/20 03:05:58;;;;;;;10.23;8.60;;;;;;;-0.27;100.00;92268.09;5016149;28;20195;-87
2021/03/20 03:08:30;;;;;;;8.70;7.60;;;;;;;-0.67;100.00;92338.50;5015966;28;20281;-87
2021/03/20 03:11:02;;;;;;;14.97;11.27;;;;;;;-0.61;100.00;92332.59;5015653;28;20211;-87
2021/03/20 03:13:34;;;;;;;14.30;11.67;;;;;;;-0.58;100.00;92321.91;5015831;28;20191;-87
2021/03/20 03:16:08;;;;;;;14.73;12.50;;;;;;;-0.81;100.00;92343.53;5015769;28;20322;-85
2021/03/20 03:18:41;;;;;;;19.23;13.53;;;;;;;-0.59;100.00;92300.47;5016185;28;20219;-87
2021/03/20 03:21:14;;;;;;;22.37;13.33;;;;;;;-0.48;100.00;92283.69;5015683;28;20334;-87
2021/03/20 03:23:42;;;;;;;19.03;13.03;;;;;;;-0.58;100.00;92303.84;5015671;28;20195;-87
2021/03/20 03:26:17;;;;;;;19.33;13.53;;;;;;;-0.60;100.00;92298.06;5015622;28;20287;-86
2021/03/20 03:28:49;;;;;;;20.20;13.67;;;;;;;-0.49;100.00;92269.16;5015652;28;20229;-87
2021/03/20 03:31:25;;;;;;;21.90;15.17;;;;;;;-0.42;100.00;92257.09;5015446;28;20207;-86
2021/03/20 03:33:58;;;;;;;23.10;15.20;;;;;;;-0.33;100.00;92247.44;5015588;28;20219;-86
2021/03/20 03:36:28;;;;;;;104.97;56.63;;;;;;;-0.55;100.00;92290.56;5015755;28;20680;-86
2021/03/20 03:39:00;;;;;;;52.17;29.93;;;;;;;-0.46;100.00;92296.38;5015799;28;20549;-87
2021/03/20 03:41:32;;;;;;;43.03;26.27;;;;;;;-0.43;100.00;92316.63;5015468;28;20249;-85
2021/03/20 03:44:00;;;;;;;33.83;20.83;;;;;;;-0.49;100.00;92337.03;5015621;28;20266;-87
2021/03/20 03:46:29;;;;;;;22.37;15.07;;;;;;;-0.47;100.00;92318.78;5014877;28;20718;-86
2021/03/20 03:49:00;;;;;;;26.93;13.43;;;;;;;-0.56;100.00;92325.06;5015500;28;20283;-87
2021/03/20 03:51:28;;;;;;;15.87;13.13;;;;;;;-0.58;100.00;92314.16;5015249;28;20290;-87
2021/03/20 03:53:57;;;;;;;32.53;20.00;;;;;;;-0.54;100.00;92297.31;5015031;28;20322;-85
2021/03/20 03:56:44;;;;;;;30.20;20.43;;;;;;;-0.66;100.00;92302.19;5013682;28;20286;-85
2021/03/20 03:59:16;;;;;;;37.73;22.63;;;;;;;-0.69;100.00;92299.19;5014779;28;20187;-86
2021/03/20 04:02:00;;;;;;;154.93;52.50;;;;;;;-0.80;100.00;92305.66;5014945;28;20199;-85
2021/03/20 04:04:49;;;;;;;53.10;27.33;;;;;;;-0.70;100.00;92282.13;5014515;28;20275;-85
2021/03/20 04:07:40;;;;;;;41.57;24.90;;;;;;;-0.62;100.00;92280.22;5014566;28;20281;-85
2021/03/20 04:10:15;;;;;;;136.23;78.97;;;;;;;-0.57;100.00;92290.75;5014230;28;20287;-85
2021/03/20 04:12:49;;;;;;;93.20;55.53;;;;;;;-0.60;100.00;92298.06;5014393;28;20618;-85
2021/03/20 04:15:24;;;;;;;33.87;22.43;;;;;;;-0.53;100.00;92297.13;5014569;28;20647;-86
2021/03/20 04:18:02;;;;;;;22.60;15.50;;;;;;;-0.50;100.00;92303.69;5014437;28;20330;-85
2021/03/20 04:20:42;;;;;;;33.17;18.50;;;;;;;-0.57;100.00;92326.06;5014183;28;20195;-85
2021/03/20 04:23:18;;;;;;;46.17;32.47;;;;;;;-0.47;100.00;92313.63;5014148;28;20206;-86
2021/03/20 04:25:51;;;;;;;27.17;20.90;;;;;;;-0.55;100.00;92326.69;5014014;28;20246;-85
2021/03/20 04:28:25;;;;;;;23.10;17.30;;;;;;;-0.44;100.00;92320.22;5014409;28;20223;-86
2021/03/20 04:31:03;;;;;;;27.23;20.00;;;;;;;-0.56;100.00;92330.22;5013910;28;20207;-86
2021/03/20 04:33:37;;;;;;;13.63;11.13;;;;;;;-0.45;100.00;92322.00;5014017;28;20274;-86
2021/03/20 04:36:15;;;;;;;14.83;12.07;;;;;;;-0.42;100.00;92336.28;5014128;28;20187;-86
2021/03/20 04:38:45;;;;;;;22.00;16.07;;;;;;;-0.38;100.00;92333.16;5014205;28;20570;-86
2021/03/20 04:41:14;;;;;;;20.83;16.13;;;;;;;-0.22;100.00;92315.75;5013925;28;20235;-86
2021/03/20 04:43:42;;;;;;;27.37;20.17;;;;;;;-0.27;100.00;92335.19;5013784;28;20203;-86
2021/03/20 04:46:16;;;;;;;17.73;15.10;;;;;;;-0.35;100.00;92357.75;5013675;28;20731;-87
2021/03/20 04:48:48;;;;;;;30.47;20.33;;;;;;;-0.41;100.00;92368.84;5013734;28;20194;-86
2021/03/20 04:51:33;;;;;;;29.70;20.90;;;;;;;-0.53;100.00;92381.44;5013752;28;20247;-86
2021/03/20 04:54:09;;;;;;;40.50;24.43;;;;;;;-0.52;100.00;92380.44;5014101;28;20556;-86
2021/03/20 04:56:43;;;;;;;42.00;29.60;;;;;;;-0.47;100.00;92379.91;5013846;28;20219;-87
2021/03/20 04:59:21;;;;;;;37.77;24.90;;;;;;;-0.30;100.00;92358.00;5013823;28;20198;-87
2021/03/20 05:01:50;;;;;;;34.60;24.40;;;;;;;-0.25;100.00;92353.84;5013955;28;20187;-87
2021/03/20 05:04:24;;;;;;;28.50;18.20;;;;;;;-0.31;100.00;92383.00;5013522;28;20649;-86
2021/03/20 05:06:52;;;;;;;39.03;19.73;;;;;;;-0.39;100.00;92392.66;5013054;28;20195;-86
2021/03/20 05:09:22;;;;;;;35.77;17.70;;;;;;;-0.11;100.00;92346.97;5013554;28;20200;-88
2021/03/20 05:11:55;;;;;;;82.90;40.77;;;;;;;-0.12;100.00;92347.19;5013644;28;20273;-87
2021/03/20 05:14:29;;;;;;;66.40;38.60;;;;;;;-0.13;100.00;92521.91;5013676;28;20188;-87
2021/03/20 05:16:58;;;;;;;58.87;34.90;;;;;;;-0.16;100.00;92531.78;5013789;28;20191;-87
2021/03/20 05:19:27;;;;;;;55.43;34.30;;;;;;;-0.16;100.00;92531.78;5014009;28;20200;-87
2021/03/20 05:21:56;;;;;;;48.37;33.77;;;;;;;-0.07;100.00;92525.50;5013712;28;20200;-87
2021/03/20 05:24:25;;;;;;;53.90;42.57;;;;;;;-0.03;100.00;92512.06;5013336;28;20265;-87
2021/03/20 05:26:53;;;;;;;62.97;49.30;;;;;;;-0.04;100.00;92509.66;5013383;28;20204;-87
2021/03/20 05:29:20;;;;;;;53.83;38.10;;;;;;;0.06;100.00;92493.84;5013086;28;20285;-87
2021/03/20 05:31:47;;;;;;;43.90;30.90;;;;;;;-0.05;100.00;92513.22;5013060;28;20219;-86
2021/03/20 05:34:21;;;;;;;47.03;34.07;;;;;;;-0.19;100.00;92524.41;5013224;28;20195;-86
2021/03/20 05:36:48;;;;;;;48.77;30.50;;;;;;;-0.20;100.00;92522.84;5013087;28;20184;-87
2021/03/20 05:39:17;;;;;;;47.23;31.73;;;;;;;-0.01;100.00;92481.66;5012897;28;20207;-86
2021/03/20 05:42:01;;;;;;;54.03;33.30;;;;;;;0.12;100.00;92460.31;5012829;28;20195;-85
2021/03/20 05:44:47;;;;;;;59.97;39.60;;;;;;;0.29;100.00;92441.97;5012904;28;20180;-86
2021/03/20 05:47:27;;;;;;;61.83;37.00;;;;;;;-0.23;100.00;92515.47;5012872;28;20184;-86
2021/03/20 05:50:08;;;;;;;57.90;35.60;;;;;;;-0.13;100.00;92496.09;5012603;28;20175;-85
2021/03/20 05:52:47;;;;;;;52.73;33.77;;;;;;;0.19;100.00;92450.84;5012643;28;20639;-85
2021/03/20 05:55:35;;;;;;;40.13;30.20;;;;;;;0.30;100.00;92425.47;5012741;28;20210;-86
2021/03/20 05:58:21;;;;;;;40.77;30.97;;;;;;;0.45;100.00;92400.28;5012502;28;20190;-85
2021/03/20 06:00:55;;;;;;;39.83;31.20;;;;;;;0.60;100.00;92389.84;5012873;28;20219;-85
2021/03/20 06:03:41;;;;;;;58.20;39.40;;;;;;;0.66;100.00;92384.69;5012336;28;20199;-86
2021/03/20 06:06:35;;;;;;;51.87;34.83;;;;;;;0.77;100.00;92390.31;5012634;28;20278;-86
2021/03/20 06:09:11;;;;;;;49.23;35.03;;;;;;;0.98;100.00;92372.06;5009509;28;20701;-88
2021/03/20 06:12:11;;;;;;;;;;;;;;;;;;;;;
2021/03/20 06:14:54;;;;;;;58.20;44.17;;;;;;;1.00;100.00;92401.09;4993109;28;20211;-88
2021/03/20 06:17:41;;;;;;;45.50;33.07;;;;;;;1.07;100.00;92408.84;4993239;28;20188;-88
2021/03/20 06:20:41;;;;;;;21.07;18.67;;;;;;;1.01;100.00;92449.25;4998183;28;20200;-88
2021/03/20 06:23:14;;;;;;;26.73;19.67;;;;;;;1.15;100.00;92445.69;4997964;28;20188;-88
2021/03/20 06:25:58;;;;;;;30.87;23.10;;;;;;;1.34;100.00;92430.41;4999555;28;20224;-88
2021/03/20 06:28:32;;;;;;;39.33;27.67;;;;;;;1.43;100.00;92429.25;4997174;28;20188;-88
2021/03/20 06:31:06;;;;;;;47.53;33.33;;;;;;;1.43;100.00;92439.59;4997563;28;20224;-89
2021/03/20 06:33:42;;;;;;;51.43;36.10;;;;;;;1.45;100.00;92460.06;4997455;28;20229;-88
2021/03/20 06:36:14;;;;;;;50.17;37.30;;;;;;;1.45;100.00;92460.88;4997441;28;20219;-90
2021/03/20 06:38:45;;;;;;;51.10;38.50;;;;;;;1.67;100.00;92431.25;4997326;28;20268;-89
2021/03/20 06:41:20;;;;;;;47.07;38.33;;;;;;;1.68;100.00;92442.41;4997621;28;20184;-90
2021/03/20 06:43:53;;;;;;;47.03;35.53;;;;;;;1.76;100.00;92438.81;4997774;28;20223;-89
2021/03/20 06:46:26;;;;;;;37.57;28.50;;;;;;;1.88;100.00;92427.66;4997827;28;20618;-89
2021/03/20 06:48:56;;;;;;;30.37;23.77;;;;;;;1.97;100.00;92423.06;4997293;28;20235;-89
2021/03/20 06:51:23;;;;;;;24.33;21.70;;;;;;;2.10;100.00;92417.88;4997156;28;20238;-89
2021/03/20 06:53:55;;;;;;;23.60;21.10;;;;;;;2.12;100.00;92428.84;4997425;28;20208;-88
2021/03/20 06:56:23;;;;;;;24.33;20.87;;;;;;;2.21;100.00;92431.22;4997413;28;20283;-88
2021/03/20 06:58:51;;;;;;;26.00;20.87;;;;;;;2.25;100.00;92428.03;4997059;28;20283;-89
2021/03/20 07:01:39;;;;;;;27.13;21.40;;;;;;;2.48;100.00;92406.03;4997037;28;20677;-89
2021/03/20 07:04:21;;;;;;;17.47;15.60;;;;;;;2.57;100.00;92400.44;4997276;28;20204;-88
2021/03/20 07:07:25;;;;;;;13.97;12.63;;;;;;;2.44;100.00;92431.56;4996821;28;20200;-88
2021/03/20 07:09:54;;;;;;;17.27;14.43;;;;;;;2.65;100.00;92411.56;4937059;29;20202;-89
2021/03/20 07:12:22;;;;;;;16.63;14.63;;;;;;;2.80;100.00;92404.31;4983452;28;20239;-89
2021/03/20 07:14:53;;;;;;;20.03;17.03;;;;;;;2.88;100.00;92409.28;4996814;28;20200;-89
2021/03/20 07:17:37;;;;;;;17.57;14.77;;;;;;;3.18;100.00;92377.59;4996514;28;20200;-89
2021/03/20 07:20:10;;;;;;;15.20;13.30;;;;;;;3.42;100.00;92353.47;4997132;28;20204;-88
2021/03/20 07:22:41;;;;;;;16.63;14.83;;;;;;;3.59;100.00;92353.75;4996565;28;20284;-89
2021/03/20 07:25:27;;;;;;;18.33;15.43;;;;;;;3.80;100.00;92362.97;4996413;28;20207;-89
2021/03/20 07:28:06;;;;;;;16.20;14.50;;;;;;;3.94;100.00;92382.63;4996840;28;20219;-89
2021/03/20 07:30:38;;;;;;;14.20;12.33;;;;;;;4.01;100.00;92426.75;4995343;28;20228;-89
2021/03/20 07:33:25;;;;;;;13.80;12.40;;;;;;;4.15;100.00;92454.22;4996484;28;20200;-89
2021/03/20 07:35:53;;;;;;;13.43;10.87;;;;;;;4.24;100.00;92509.31;4996208;28;20188;-89
2021/03/20 07:38:24;;;;;;;13.97;11.83;;;;;;;4.33;100.00;92565.25;4996314;28;20208;-89
2021/03/20 07:40:51;;;;;;;11.60;10.50;;;;;;;4.24;100.00;92639.28;4996416;28;20200;-88
2021/03/20 07:43:20;;;;;;;12.17;10.90;;;;;;;3.85;100.00;92760.56;4996122;28;20283;-88
2021/03/20 07:45:50;;;;;;;9.83;8.30;;;;;;;3.99;100.00;92803.72;4988616;28;20243;-89
2021/03/20 07:48:26;;;;;;;9.47;8.63;;;;;;;3.96;100.00;92858.69;4989880;28;20200;-90
2021/03/20 07:51:06;;;;;;;9.90;8.00;;;;;;;4.11;100.00;92891.44;4976575;28;20701;-86
2021/03/20 07:53:42;;;;;;;11.93;8.63;;;;;;;4.00;100.00;92968.19;4975324;28;20259;-86
2021/03/20 07:56:34;;;;;;;8.83;8.03;;;;;;;3.93;100.00;93022.75;4975830;28;20209;-87
2021/03/20 07:59:33;;;;;;;12.67;10.23;;;;;;;4.06;100.00;93045.38;4976232;28;20244;-91
2021/03/20 08:02:03;;;;;;;12.57;11.27;;;;;;;4.21;100.00;93069.38;4970172;28;20205;-90
2021/03/20 08:04:52;;;;;;;12.07;10.80;;;;;;;4.33;100.00;93115.59;4976472;28;20204;-90
2021/03/20 08:07:37;;;;;;;11.60;10.07;;;;;;;4.24;100.00;93170.38;4975898;28;20204;-90
2021/03/20 08:10:13;;;;;;;10.47;9.47;;;;;;;4.08;100.00;93240.09;4976099;28;20224;-91
2021/03/20 08:12:56;;;;;;;14.47;9.43;;;;;;;3.74;100.00;93299.66;4976513;28;20271;-91
2021/03/20 08:15:34;;;;;;;19.73;14.80;;;;;;;3.92;100.00;93309.56;4975911;28;20227;-91
2021/03/20 08:18:20;;;;;;;71.00;52.63;;;;;;;4.15;100.00;93303.28;4975987;28;20220;-90
2021/03/20 08:21:19;;;;;;;44.93;37.10;;;;;;;4.30;100.00;93319.59;4975914;28;20216;-91
2021/03/20 08:24:17;;;;;;;26.33;23.00;;;;;;;4.20;100.00;93353.72;4944124;28;20197;-89
2021/03/20 08:26:52;;;;;;;12.27;11.00;;;;;;;4.22;100.00;93372.53;4972822;28;20216;-89
2021/03/20 08:29:41;;;;;;;14.60;12.80;;;;;;;4.37;100.00;93382.81;4975985;28;20204;-89
2021/03/20 08:32:22;;;;;;;16.50;14.87;;;;;;;4.44;100.00;93394.06;4975529;28;20288;-89
2021/03/20 08:35:03;;;;;;;13.30;11.93;;;;;;;4.60;100.00;93408.53;4974572;28;20201;-90
2021/03/20 08:37:37;;;;;;;17.00;14.23;;;;;;;4.66;100.00;93433.81;4974535;28;20292;-89
2021/03/20 08:40:35;;;;;;;18.27;15.57;;;;;;;4.60;100.00;93462.38;4975769;28;20204;-89
2021/03/20 08:43:18;;;;;;;14.13;12.47;;;;;;;4.56;100.00;93493.16;4977701;28;20294;-89
2021/03/20 08:45:55;;;;;;;18.03;15.27;;;;;;;4.59;100.00;93515.41;4994037;28;20232;-90
2021/03/20 08:48:36;;;;;;;15.20;13.63;;;;;;;5.00;100.00;93486.84;4994963;28;20204;-90
2021/03/20 08:51:18;;;;;;;11.17;9.67;;;;;;;5.13;100.00;93494.72;4994926;28;20224;-90
2021/03/20 08:53:52;;;;;;;9.87;8.87;;;;;;;5.07;100.00;93529.31;4994888;28;20204;-86
2021/03/20 08:56:45;;;;;;;11.30;9.23;;;;;;;5.13;100.00;93525.16;4994353;28;20223;-92
2021/03/20 08:59:16;;;;;;;12.93;11.07;;;;;;;5.23;100.00;93529.03;4994660;28;20556;-91
2021/03/20 09:01:50;;;;;;;29.43;24.93;;;;;;;5.57;100.00;93511.72;4994553;28;20211;-92
2021/03/20 09:04:21;;;;;;;13.87;12.30;;;;;;;5.75;100.00;93513.78;4994524;28;20200;-92
2021/03/20 09:06:54;;;;;;;13.53;11.27;;;;;;;5.82;100.00;93524.22;4995130;28;20200;-92
2021/03/20 09:09:25;;;;;;;27.00;16.97;;;;;;;6.21;100.00;93515.72;4994488;28;20199;-91
2021/03/20 09:11:59;;;;;;;35.50;21.17;;;;;;;6.32;100.00;93532.56;4994170;28;20221;-92
2021/03/20 09:14:30;;;;;;;12.37;10.10;;;;;;;6.69;100.00;93543.44;4978047;28;20245;-94
2021/03/20 09:17:01;;;;;;;11.97;10.73;;;;;;;6.47;100.00;93593.19;4974941;28;20207;-93
2021/03/20 09:19:31;;;;;;;10.77;9.70;;;;;;;6.45;100.00;93620.50;4975288;28;20670;-91
2021/03/20 09:22:05;;;;;;;9.47;8.67;;;;;;;6.34;100.00;93672.25;4975423;28;20252;-93
2021/03/20 09:24:33;;;;;;;9.50;8.50;;;;;;;6.36;100.00;93706.75;4974943;28;20228;-91
2021/03/20 09:27:02;;;;;;;10.70;9.60;;;;;;;6.42;100.00;93726.84;4974892;28;20899;-91
2021/03/20 09:29:31;;;;;;;9.40;8.57;;;;;;;6.05;100.00;93797.69;4974975;28;20288;-91
2021/03/20 09:32:13;;;;;;;10.27;9.33;;;;;;;6.33;100.00;93797.63;4974393;28;20256;-91
2021/03/20 09:34:53;;;;;;;11.17;10.07;;;;;;;6.35;100.00;93829.56;4974661;28;20185;-91
2021/03/20 09:38:00;;;;;;;9.23;8.07;;;;;;;6.27;100.00;93859.22;4974472;28;20185;-90
2021/03/20 09:40:50;;;;;;;7.63;6.93;;;;;;;6.08;100.00;93884.16;4974710;28;20248;-91
2021/03/20 09:43:37;;;;;;;8.97;8.17;;;;;;;6.14;100.00;93913.91;4974322;28;20193;-91
2021/03/20 09:46:46;;;;;;;12.77;11.30;;;;;;;6.45;100.00;93933.59;4975053;28;20256;-92
2021/03/20 09:49:37;;;;;;;7.10;6.50;;;;;;;6.69;100.00;93940.19;4974250;28;20200;-92
2021/03/20 09:52:04;;;;;;;7.17;6.47;;;;;;;6.76;100.00;93981.00;4974506;28;20228;-92
2021/03/20 09:54:45;;;;;;;7.10;6.47;;;;;;;7.08;100.00;93999.66;4974285;28;20280;-94
2021/03/20 09:57:52;;;;;;;6.10;5.60;;;;;;;6.37;100.00;94078.84;4974336;28;20283;-92
2021/03/20 10:00:47;;;;;;;9.67;7.73;;;;;;;6.24;100.00;94109.22;4974120;28;20673;-92
2021/03/20 10:03:43;;;;;;;5.53;5.03;;;;;;;6.34;100.00;94136.63;4957536;28;20292;-92
2021/03/20 10:06:25;;;;;;;7.47;4.90;;;;;;;6.64;100.00;94141.72;4974542;28;20193;-92
2021/03/20 10:09:24;;;;;;;9.53;8.63;;;;;;;6.85;100.00;94153.97;4974118;28;20193;-92
2021/03/20 10:12:18;;;;;;;12.13;10.93;;;;;;;7.03;100.00;94159.56;4974205;28;20757;-93
2021/03/20 10:15:28;;;;;;;5.97;5.47;;;;;;;6.42;100.00;94196.50;4974342;28;20256;-92
2021/03/20 10:18:24;;;;;;;53.87;30.00;;;;;;;6.11;100.00;94235.88;4974778;28;20636;-92
2021/03/20 10:21:05;;;;;;;134.47;75.73;;;;;;;6.33;100.00;94244.56;4957755;28;20197;-92
2021/03/20 10:23:40;;;;;;;96.23;57.30;;;;;;;7.06;100.00;94223.66;4974238;28;20228;-92
2021/03/20 10:26:30;;;;;;;59.73;36.80;;;;;;;6.74;100.00;94267.53;4974399;28;20276;-92
2021/03/20 10:28:58;;;;;;;32.47;24.13;;;;;;;6.74;100.00;94285.81;4974062;28;20196;-93
2021/03/20 10:31:29;;;;;;;45.77;32.73;;;;;;;6.80;100.00;94300.75;4974109;28;20260;-93
2021/03/20 10:34:09;;;;;;;32.27;24.20;;;;;;;7.13;100.00;94300.28;4973896;28;20289;-92
2021/03/20 10:36:39;;;;;;;40.37;30.63;;;;;;;7.21;100.00;94315.06;4974170;28;20551;-93
2021/03/20 10:39:28;;;;;;;13.70;12.30;;;;;;;7.72;100.00;94313.09;4973885;28;20192;-93
2021/03/20 10:41:59;;;;;;;7.13;6.43;;;;;;;7.45;100.00;94347.84;4974761;28;20276;-93
2021/03/20 10:44:31;;;;;;;6.60;6.00;;;;;;;7.50;100.00;94367.19;4973911;28;20228;-93
2021/03/20 10:47:05;;;;;;;7.87;7.17;;;;;;;7.51;100.00;94381.06;4973527;28;20232;-94
2021/03/20 10:49:38;;;;;;;11.27;9.93;;;;;;;7.85;100.00;94393.47;4974020;28;20198;-93
2021/03/20 10:52:06;;;;;;;9.07;8.07;;;;;;;7.93;100.00;94387.31;4973487;28;20263;-92
2021/03/20 10:54:37;;;;;;;11.37;10.27;;;;;;;7.67;100.00;94416.66;4973778;28;20205;-94
2021/03/20 10:57:08;;;;;;;9.73;8.83;;;;;;;8.04;100.00;94423.44;4973647;28;20666;-92
2021/03/20 10:59:37;;;;;;;13.30;11.83;;;;;;;8.07;100.00;94433.50;4973080;28;20196;-92
2021/03/20 11:02:24;;;;;;;10.53;9.37;;;;;;;7.68;100.00;94457.47;4974290;28;20319;-93
2021/03/20 11:04:53;;;;;;;8.97;8.17;;;;;;;7.28;100.00;94498.84;4973678;28;20770;-93
2021/03/20 11:07:22;;;;;;;20.30;15.70;;;;;;;7.27;100.00;94516.31;4976996;28;20236;-93
2021/03/20 11:09:49;;;;;;;14.73;12.67;;;;;;;7.10;100.00;94541.81;4977654;28;20236;-92
2021/03/20 11:12:30;;;;;;;8.90;7.77;;;;;;;7.57;100.00;94529.34;4976860;28;20316;-92
2021/03/20 11:17:43;;;;;;;8.17;7.47;;;;;;;7.86;100.00;94537.16;4952097;28;20212;-91
2021/03/20 11:20:22;;;;;;;9.73;8.73;;;;;;;7.47;100.00;94558.38;4977636;28;20193;-92
2021/03/20 11:22:50;;;;;;;17.83;12.53;;;;;;;7.19;100.00;94581.72;4977492;28;20185;-92
2021/03/20 11:25:20;;;;;;;7.90;7.20;;;;;;;7.05;100.00;94609.44;4977328;28;20289;-92
2021/03/20 11:27:59;;;;;;;9.20;8.30;;;;;;;7.76;100.00;94570.66;4977104;28;20204;-92
2021/03/20 11:30:41;;;;;;;9.13;8.23;;;;;;;8.07;100.00;94562.56;4977496;28;20231;-91
2021/03/20 11:33:15;;;;;;;10.47;9.47;;;;;;;8.00;100.00;94564.28;4976693;28;20247;-91
2021/03/20 11:35:46;;;;;;;16.97;12.37;;;;;;;7.88;100.00;94588.47;4976771;28;20199;-91
2021/03/20 11:38:15;;;;;;;8.73;7.83;;;;;;;7.68;100.00;94616.97;4976733;28;20217;-92
2021/03/20 11:40:44;;;;;;;11.23;9.67;;;;;;;7.49;100.00;94626.19;4976631;28;20189;-90
2021/03/20 11:43:21;;;;;;;9.73;8.80;;;;;;;7.61;100.00;94628.16;4976763;28;20292;-92
2021/03/20 11:45:48;;;;;;;10.80;9.00;;;;;;;7.44;100.00;94645.00;4976181;28;20239;-91
2021/03/20 11:48:26;;;;;;;8.87;8.07;;;;;;;7.21;100.00;94660.75;4976462;28;20279;-91
2021/03/20 11:50:54;;;;;;;7.67;6.37;;;;;;;7.04;100.00;94664.50;4977200;28;20244;-91
2021/03/20 11:53:26;;;;;;;10.20;9.30;;;;;;;7.28;100.00;94666.09;4977322;28;20672;-91
2021/03/20 11:55:54;;;;;;;10.53;9.50;;;;;;;7.52;100.00;94665.84;4967198;28;20285;-83
2021/03/20 11:58:28;;;;;;;8.83;7.53;;;;;;;7.36;100.00;94669.44;4991424;28;20208;-92
2021/03/20 12:00:56;;;;;;;10.27;9.27;;;;;;;7.53;100.00;94670.09;4976140;28;20575;-91